Carlos Alvarez

Scout - Toluca
3 Dec 2028
Sunday
Process

Personality

Adaptability (6) Ambition (5) Controversy (9) Loyalty (14) Pressure (10) Professionalism (16) Sportsmanship (17) Temperament (7)

Profile

Coaching Style Democratic
License Continental Pro
Determination 10
Man Management 13
Motivating 9
Discipline 5
Job Satisfaction
100%
Fatigue
0%
Role Scout
Wage 90.0K p/w
Contract 14.03.2029

Performance

Behaviour Good
Training Effectiveness
45%
Player Development
40%
Injury Prevention
40%
Tactical Implementation
45%

Recent Events

Attended a recruitment meeting now
Recommended a transfer target now
Recommended a transfer target now
Assessed a player now
Assessed a player now
Assessed a player now
Assessed a player 7d ago
Observed a match 7d ago

Currently Monitoring

132
Player Club Status Ability Confidence Watched Last Observed Latest Vote
Roberto Medina La Equidad Active 96 / 103 40% 5 02.12.2028 -
Peyton Miller New England Revolution Active 115 / 128 40% 3 02.12.2028 -
Diego León Rotherham United Active 126 / 123 40% 2 02.12.2028 -
Estanislao López Colón Active 95 / 91 40% 2 01.12.2028 -
Máximo Munarriz San Telmo Active 102 / 102 40% 2 01.12.2028 -
Cheveyo Tsawa Club Brugge Active 128 / 147 40% 1 01.12.2028 -
Ayyoub Bouaddi Stoke City Active 156 / 164 40% 3 29.11.2028 -
Juan Camilo Córdoba Deportivo Pereira Active 92 / 96 40% 2 29.11.2028 -
Joel Ezra Enyimba Active 103 / 92 40% 2 29.11.2028 -
Sergio Martínez Real Madrid Active 127 / 135 40% 2 28.11.2028 -
Azizbek To'lqinbekov Bunyodkor Active 99 / 95 40% 3 28.11.2028 -
Hian Rincón Once Caldas Active 90 / 90 40% 1 28.11.2028 -
Buba Sangaré Elche Active 129 / 143 40% 5 24.11.2028 -
Felipe Varela Trujillanos Active 93 / 92 40% 2 24.11.2028 -
Mateo Faure BATE Active 90 / 101 40% 4 23.11.2028 -
Luis Otávio Orlando City Active 117 / 117 40% 5 23.11.2028 -
Chris Rigg West Ham United Active 134 / 154 40% 5 23.11.2028 -
João Simões Sporting CP Active 141 / 135 40% 3 21.11.2028 -
Honest Ahanor Atalanta Active 136 / 158 40% 5 20.11.2028 -
Gideon Manaseh Ikorodu City Active 88 / 112 40% 3 20.11.2028 -
Trey Nyoni Rotherham United Active 146 / 146 40% 4 19.11.2028 -
Máximo Magnoli Ferro Carril Oeste Active 98 / 92 40% 4 19.11.2028 -
Jorge Salinas Racing Santander Active 131 / 141 40% 8 18.11.2028 -
Sebastian Rodriguez Houston Dynamo Active 118 / 127 40% 2 18.11.2028 -
Anderson Acevedo Bogota Active 87 / 102 40% 2 18.11.2028 -
Facundo Balatti Penarol Active 106 / 107 40% 3 17.11.2028 -
Santino Aguirre Deportivo Riestra Active 89 / 104 40% 2 17.11.2028 -
Celías Ingenthron Platense Active 117 / 128 40% 3 17.11.2028 -
Veljko Milosavljević Bournemouth Active 156 / 142 40% 2 12.11.2028 -
Miguel Figueiredo Benfica Active 122 / 132 40% 1 11.11.2028 -
Luis Maturana Alianza Petrolera Active 103 / 101 40% 1 11.11.2028 -
Filip Reshane Stabaek Active 110 / 97 40% 1 10.11.2028 -
Aytor Herrera Mineros de Guayana Active 87 / 95 40% 1 10.11.2028 -
Mirza Ćatović VfB Stuttgart Active 121 / 138 40% 2 09.11.2028 -
Mauro Matorras Central Norte Active 95 / 98 40% 2 09.11.2028 -
Santino Mambrín Instituto Active 87 / 107 40% 1 09.11.2028 -
Samuel Molano Patriotas Active 93 / 85 40% 1 07.11.2028 -
Matías Satas Grimsby Town Active 107 / 107 40% 1 06.11.2028 -
Pau Cubarsí Real Sociedad Active 168 / 155 40% 3 04.10.2028 -
Agustín Medina Lanús Active 115 / 117 40% 2 02.10.2028 -
Felipe Pujol Vélez Active 112 / 115 40% 2 30.09.2028 -
Malte Hallin GIF Sundsvall Active 93 / 105 40% 1 28.09.2028 -
Germán Barbas Racing Santander Active 114 / 135 40% 1 28.09.2028 -
Valentín Loza Defensa y Justicia Active 107 / 112 40% 1 27.09.2028 -
Santiago Espíndola River Plate Active 116 / 124 40% 2 24.09.2028 -
Aarón Martín Al-Qadisiyah Active 116 / 114 40% 2 23.09.2028 -
Diego Cheuquepal Racing Active 98 / 109 40% 3 22.09.2028 -
Mauricio Ponce Quilmes Active 96 / 93 40% 1 22.09.2028 -
Mauro Carrizo Atlético Tucumán Active 104 / 102 40% 1 20.09.2028 -
Matias Siltanen Malmo FF Active 129 / 138 40% 2 18.09.2028 -
Gonzalo Escudero Racing Club Active 108 / 106 40% 1 17.09.2028 -
Axel Tape Bayer Leverkusen Active 130 / 148 40% 2 16.09.2028 -
Matías Magdaleno Estudiantes Active 111 / 115 40% 1 16.09.2028 -
Ayden Heaven Portsmouth Active 143 / 146 40% 2 15.09.2028 -
Andrés Cuenca Como Active 122 / 116 40% 1 15.09.2028 -
Davinchi Getafe Active 129 / 128 40% 1 13.09.2028 -
Hosea Michael Remo Stars Active 96 / 94 40% 1 12.09.2028 -
Harrison Armstrong Ipswich Town Active 139 / 148 40% 1 11.09.2028 -
Christos Mouzakitis Hull City Active 135 / 140 40% 2 08.09.2028 -
Nicolás Blanco San Lorenzo Active 103 / 114 40% 1 07.09.2028 -
Samuel Córdoba Depor Active 91 / 85 40% 2 06.09.2028 -
Tobías Ramírez River Plate Active 130 / 130 40% 1 05.09.2028 -
Rio Ngumoha Plymouth Argyle Active 147 / 157 40% 7 04.07.2028 -
Siyabonga Mabena Bidvest Wits Active 134 / 136 40% 2 04.07.2028 -
Mustafa Hekimoğlu Antalyaspor Active 139 / 143 40% 1 04.07.2028 -
Jake Evans Crewe Alexandra Negotiating 112 / 132 40% 4 26.06.2028 -
Ryan Kavuma-McQueen Accrington Stanley Active 113 / 123 80% 6 26.06.2028 Strong Approve
Edison Gruezo Guadalajara Active 105 / 117 40% 3 19.06.2028 -
Kerim Alajbegović Modena Active 142 / 136 40% 4 19.06.2028 -
Ryunosuke Sato Eibar Active 140 / 132 75% 6 14.06.2028 Strong Approve
Dani Díaz Real Sociedad Active 120 / 126 40% 1 14.06.2028 -
Jesús Garza Tigres Report Ready 136 / 139 76% 1 07.06.2028 -
César Huerta Pumas UNAM Lost 129 / 128 76% 1 06.06.2028 -
Gabriel Mec Feirense Active 135 / 142 40% 6 19.05.2028 -
Leo Pecover Swindon Town Active 98 / 117 40% 2 19.05.2028 -
Luca Williams-Barnett Walsall Active 115 / 130 40% 3 15.05.2028 -
Igor Tyjon Barrow AFC Active 122 / 115 40% 2 15.05.2028 -
Jan Virgili Club Brugge Active 145 / 134 40% 2 12.05.2028 -
Héctor Fort Real Sociedad Active 148 / 132 40% 4 12.05.2028 -
Musa Danjuma Umraniyespor Active 101 / 100 40% 1 12.05.2028 -
Shea Lacey Crystal Palace Active 132 / 143 40% 2 09.05.2028 -
Gilberto Mora Guadalajara Active 132 / 147 40% 4 09.05.2028 -
Josh Nichols Oldham Athletic Active 125 / 113 40% 5 08.05.2028 -
Gabe Forsyth Colchester United Active 108 / 128 40% 1 07.05.2028 -
André Miranda Porto Active 116 / 109 40% 1 05.05.2028 -
Sindre Walle Egeli Udinese Active 131 / 143 40% 2 04.05.2028 -
Giovanni Cantizano Fulham Active 117 / 124 40% 2 04.05.2028 -
Nicolò Moranduzzo Renate Active 90 / 100 40% 1 04.05.2028 -
Ryan McAidoo Oldham Athletic Active 116 / 127 40% 1 02.05.2028 -
Ben Broggio Mansfield Town Active 104 / 117 40% 1 01.05.2028 -
Oscar Schwartau Norwich City Active 137 / 144 40% 3 30.04.2028 -
Daniel Banjaqui Benfica Active 126 / 122 40% 1 28.04.2028 -
Omar Khedr Gillingham Active 107 / 112 40% 2 27.04.2028 -
Romelle Donovan Brentford Active 130 / 120 40% 2 27.04.2028 -
İsak Vural Audace Cerignola Active 115 / 117 40% 1 26.04.2028 -
Julien Duranville Olympique Lyonnais Active 144 / 128 40% 1 26.04.2028 -
Mateus Mané Burnley Active 136 / 145 40% 2 16.04.2028 -
Aarón Ochoa Málaga Active 128 / 134 40% 1 14.04.2028 -
Amin Nabizada Exeter City Active 107 / 107 40% 1 10.04.2028 -
Josh Acheampong Everton Active 151 / 158 40% 2 08.04.2028 -
Luca Meirelles Kudrivka Active 120 / 123 40% 1 07.04.2028 -
Luke Brooke-Smith Chesterfield Active 100 / 115 40% 1 05.04.2028 -
Bernardo Lima Porto Active 102 / 127 40% 1 21.03.2028 -
Tyler Fletcher Rotherham United Active 120 / 103 40% 1 21.03.2028 -
Riquelme Thompson-Jones Accrington Stanley Active 103 / 107 40% 2 18.03.2028 -
Izan Merino Málaga Active 138 / 135 40% 1 16.03.2028 -
Misael Domínguez Morelia Active 107 / 107 30% 1 / 1m 27.10.2027 -
Jacob Greaves Ipswich Town Active 140 / 127 40% 2 29.12.2026 -
Kristoffer Lund Birmingham Active 116 / 122 40% 1 29.12.2026 -
Valentín Gómez Betis Active 136 / 154 40% 1 29.12.2026 -
Víctor Guzmán Monterrey Active 138 / 136 40% 2 28.12.2026 -
Michael Baidoo Plymouth Argyle Active 130 / 112 40% 2 28.12.2026 -
Shea Charles Southampton Active 131 / 125 40% 1 26.12.2026 -
Welington Southampton Active 119 / 137 40% 1 26.12.2026 -
Santiago González Tigre Active 121 / 118 40% 2 23.12.2026 -
Toti Wolverhampton Active 123 / 117 40% 1 23.12.2026 -
Erik Lira Cruz Azul Active 137 / 137 40% 1 23.12.2026 -
César Araújo Tigres Active 129 / 130 40% 1 20.12.2026 -
Richard Ledezma Guadalajara Active 142 / 137 40% 1 20.12.2026 -
Jacques Ekomié Wrexham Active 141 / 121 40% 1 19.12.2026 -
Dennis Cirkin Queens Park Rangers Active 125 / 111 40% 1 19.12.2026 -
Sergi Cardona KAA Gent Active 139 / 140 40% 3 09.12.2026 -
Ayrton Costa Boca Juniors Active 137 / 129 40% 1 09.12.2026 -
Nazareno Colombo Racing Club Active 131 / 119 40% 2 06.12.2026 -
Kevin Álvarez Club America Active 132 / 125 40% 1 05.12.2026 -
Marco Di Cesare Racing Club Active 133 / 122 40% 1 28.11.2026 -
Jayson Molumby West Bromwich Albion Active 132 / 118 40% 1 28.11.2026 -
Yacine Adli Al-Shabab Active 150 / 143 40% 1 28.11.2026 -
Franco Ibarra Rosario Central Active 130 / 131 40% 1 24.11.2026 -
Fidel Ambríz Monterrey Active 121 / 133 40% 1 12.11.2026 -
Gedson Fernandes Spartak Moscow Active 133 / 142 40% 1 09.11.2026 -
Cheick Oumar Souaré Viktoria Plzen Active 137 / 112 40% 1 09.11.2026 -